Time;durP1;ratioP1;P1;durP2;ratioP2;P2;SDS_P1;SDS_P2;PMS_P1;PMS_P2;Temp;Humidity;BMP_temperature;BMP_pressure;BME280_temperature;BME280_humidity;BME280_pressure;Samples;Min_cycle;Max_cycle;Signal;HPM_P1;HPM_P2
2022/03/30 00:01:17;;;;;;;57.80;29.27;;;;;;;10.00;100.00;98517.78;5103808;28;20393;-83
2022/03/30 00:03:43;;;;;;;54.15;27.67;;;;;;;9.89;100.00;98492.22;5099286;28;20031;-82
2022/03/30 00:06:08;;;;;;;50.10;27.27;;;;;;;9.96;100.00;98496.44;5102719;28;20028;-82
2022/03/30 00:08:34;;;;;;;52.65;29.15;;;;;;;10.14;100.00;98516.78;5104541;28;20028;-83
2022/03/30 00:11:00;;;;;;;53.70;29.58;;;;;;;9.99;100.00;98484.72;5102998;28;20110;-82
2022/03/30 00:13:26;;;;;;;51.10;28.58;;;;;;;10.04;100.00;98500.66;5086299;28;20028;-82
2022/03/30 00:15:52;;;;;;;54.67;28.05;;;;;;;10.00;100.00;98507.31;5105297;28;20752;-82
2022/03/30 00:18:18;;;;;;;51.60;28.35;;;;;;;10.10;100.00;98517.38;5104099;28;20032;-82
2022/03/30 00:20:45;;;;;;;52.70;27.77;;;;;;;10.05;100.00;98515.38;5085535;28;20051;-84
2022/03/30 00:23:11;;;;;;;54.10;28.27;;;;;;;9.94;100.00;98495.84;5086519;28;20040;-84
2022/03/30 00:25:37;;;;;;;54.88;28.75;;;;;;;9.88;100.00;98490.59;5088590;28;20110;-84
2022/03/30 00:28:03;;;;;;;51.08;27.67;;;;;;;9.98;100.00;98496.22;5085246;28;20071;-83
2022/03/30 00:30:29;;;;;;;57.53;29.75;;;;;;;9.99;100.00;98487.34;5103051;28;20031;-83
2022/03/30 00:32:55;;;;;;;53.45;27.33;;;;;;;10.17;100.00;98512.94;5104739;28;20038;-84
2022/03/30 00:35:21;;;;;;;52.50;26.60;;;;;;;10.18;100.00;98513.75;5099644;28;20485;-85
2022/03/30 00:37:47;;;;;;;51.03;27.33;;;;;;;10.22;100.00;98507.88;5099950;28;20038;-82
2022/03/30 00:40:14;;;;;;;48.58;26.45;;;;;;;10.14;100.00;98495.78;5086895;28;20036;-84
2022/03/30 00:42:41;;;;;;;51.58;27.48;;;;;;;10.18;100.00;98505.88;5100193;28;20039;-83
2022/03/30 00:45:13;;;;;;;49.22;26.17;;;;;;;10.20;100.00;98499.41;5097417;28;20378;-84
2022/03/30 00:47:39;;;;;;;47.38;25.65;;;;;;;10.22;100.00;98486.09;5084918;28;20035;-83
2022/03/30 00:50:08;;;;;;;49.25;26.02;;;;;;;10.20;100.00;98495.97;5085724;28;20089;-83
2022/03/30 00:52:34;;;;;;;51.13;26.33;;;;;;;10.09;100.00;98479.88;5084537;28;20047;-82
2022/03/30 00:55:01;;;;;;;55.83;28.05;;;;;;;10.02;100.00;98470.41;5104494;28;20044;-82
2022/03/30 00:57:29;;;;;;;51.05;25.85;;;;;;;10.05;100.00;98489.16;5102769;28;20035;-81
2022/03/30 00:59:56;;;;;;;50.35;26.80;;;;;;;10.08;100.00;98486.13;5104818;28;20138;-82
2022/03/30 01:02:23;;;;;;;47.53;24.90;;;;;;;9.88;100.00;98448.66;5099806;28;20027;-83
2022/03/30 01:04:49;;;;;;;49.28;26.05;;;;;;;9.77;100.00;98435.16;5105369;28;20409;-83
2022/03/30 01:07:16;;;;;;;48.08;25.77;;;;;;;10.09;100.00;98465.94;5102222;28;20024;-83
2022/03/30 01:09:43;;;;;;;51.55;25.38;;;;;;;10.04;100.00;98461.34;5099748;28;20020;-82
2022/03/30 01:12:09;;;;;;;54.03;27.50;;;;;;;10.02;100.00;98459.91;5088215;28;20032;-82
2022/03/30 01:14:38;;;;;;;50.40;25.40;;;;;;;9.86;100.00;98441.81;5100555;28;20381;-83
2022/03/30 01:17:05;;;;;;;48.47;25.80;;;;;;;9.94;100.00;98447.84;5099129;28;20039;-82
2022/03/30 01:19:32;;;;;;;50.67;27.13;;;;;;;9.95;100.00;98454.69;5088065;28;20050;-83
2022/03/30 01:21:59;;;;;;;42.90;24.02;;;;;;;9.97;100.00;98452.66;5100989;28;20043;-83
2022/03/30 01:24:26;;;;;;;42.00;24.73;;;;;;;9.77;100.00;98432.53;5104037;28;20119;-82
2022/03/30 01:26:53;;;;;;;52.63;27.33;;;;;;;9.75;100.00;98439.78;5100585;28;20039;-82
2022/03/30 01:34:48;;;;;;;50.05;25.92;;;;;;;9.74;100.00;98409.34;5103453;28;20028;-82
2022/03/30 01:37:14;;;;;;;49.30;25.80;;;;;;;9.85;100.00;98434.94;5104940;28;20054;-82
2022/03/30 01:39:41;;;;;;;52.90;27.25;;;;;;;9.82;100.00;98435.34;5101304;28;20040;-83
2022/03/30 01:42:09;;;;;;;49.13;25.05;;;;;;;9.75;100.00;98418.03;5102196;28;20027;-83
2022/03/30 01:44:36;;;;;;;48.85;26.98;;;;;;;9.79;100.00;98429.72;5098090;28;20390;-82
2022/03/30 01:47:02;;;;;;;52.35;26.77;;;;;;;9.72;100.00;98419.25;5102568;28;20488;-83
2022/03/30 01:49:29;;;;;;;51.20;25.88;;;;;;;9.66;100.00;98420.84;5104375;28;20054;-83
2022/03/30 01:51:56;;;;;;;50.03;25.52;;;;;;;9.70;100.00;98419.44;5108085;28;20111;-83
2022/03/30 01:54:25;;;;;;;56.10;27.20;;;;;;;9.67;100.00;98421.69;5099666;28;20381;-82
2022/03/30 01:56:53;;;;;;;50.15;26.40;;;;;;;9.66;100.00;98409.59;5106396;28;20421;-84
2022/03/30 01:59:19;;;;;;;56.20;26.38;;;;;;;9.61;100.00;98393.66;5102440;28;20039;-83
2022/03/30 02:01:46;;;;;;;55.22;27.52;;;;;;;9.66;100.00;98399.88;5102590;28;20032;-83
2022/03/30 02:04:13;;;;;;;53.17;26.52;;;;;;;9.74;100.00;98411.97;5102349;28;20031;-82
2022/03/30 02:06:38;;;;;;;55.90;27.52;;;;;;;9.58;100.00;98387.81;5103905;28;20028;-83
2022/03/30 02:09:05;;;;;;;58.20;28.17;;;;;;;9.66;100.00;98414.81;5103502;28;20027;-82
2022/03/30 02:11:32;;;;;;;58.05;28.42;;;;;;;9.61;100.00;98404.13;5094693;28;20024;-83
2022/03/30 02:13:58;;;;;;;53.05;25.92;;;;;;;9.67;100.00;98405.94;5102752;28;20042;-82
2022/03/30 02:16:24;;;;;;;55.90;26.90;;;;;;;9.60;100.00;98405.13;5084526;28;21120;-83
2022/03/30 02:18:50;;;;;;;54.33;26.55;;;;;;;9.47;100.00;98382.38;5098606;28;20040;-82
2022/03/30 02:21:16;;;;;;;55.78;27.70;;;;;;;9.57;100.00;98388.81;5088268;28;20500;-82
2022/03/30 02:23:45;;;;;;;63.42;30.13;;;;;;;9.66;100.00;98393.88;5101385;28;20034;-81
2022/03/30 02:26:12;;;;;;;55.95;26.63;;;;;;;9.68;100.00;98394.47;5102918;28;20036;-82
2022/03/30 02:28:39;;;;;;;55.90;27.13;;;;;;;9.53;100.00;98368.47;5104214;28;20388;-82
2022/03/30 02:31:05;;;;;;;52.15;26.73;;;;;;;9.48;100.00;98361.22;5098045;28;20032;-84
2022/03/30 02:33:31;;;;;;;57.55;27.92;;;;;;;9.51;100.00;98368.69;5107470;28;20456;-83
2022/03/30 02:35:57;;;;;;;53.40;28.10;;;;;;;9.67;100.00;98387.59;5105854;28;20040;-84
2022/03/30 02:38:22;;;;;;;52.83;26.55;;;;;;;9.58;100.00;98377.31;5103518;28;20043;-83
2022/03/30 02:40:48;;;;;;;53.17;27.75;;;;;;;9.62;100.00;98379.53;5104443;28;20028;-82
2022/03/30 02:43:19;;;;;;;56.75;27.35;;;;;;;9.49;100.00;98362.84;5102420;27;20064;-83
2022/03/30 02:45:48;;;;;;;51.95;27.42;;;;;;;9.69;100.00;98375.91;5106880;28;20028;-82
2022/03/30 02:48:23;;;;;;;55.10;27.40;;;;;;;9.63;100.00;98361.00;5105097;28;20062;-83
2022/03/30 02:50:54;;;;;;;57.65;27.80;;;;;;;9.66;100.00;98367.66;5103106;28;20051;-82
2022/03/30 02:53:21;;;;;;;60.20;28.67;;;;;;;9.66;100.00;98362.41;5107431;28;20043;-82
2022/03/30 02:55:48;;;;;;;54.10;27.48;;;;;;;9.70;100.00;98364.41;5106677;28;20546;-84
2022/03/30 02:58:16;;;;;;;53.17;26.73;;;;;;;9.52;100.00;98351.13;5103283;28;20024;-83
2022/03/30 03:00:43;;;;;;;52.08;26.40;;;;;;;9.61;100.00;98356.97;5103555;28;20028;-83
2022/03/30 03:03:09;;;;;;;56.45;26.85;;;;;;;9.56;100.00;98358.38;5107972;28;20031;-83
2022/03/30 03:05:36;;;;;;;53.70;27.55;;;;;;;9.44;100.00;98362.66;5100698;28;20129;-82
2022/03/30 03:08:04;;;;;;;53.72;26.38;;;;;;;9.36;100.00;98357.63;5105714;28;20389;-83
2022/03/30 03:10:31;;;;;;;51.03;26.77;;;;;;;9.21;100.00;98334.28;5106239;28;20024;-84
2022/03/30 03:12:56;;;;;;;56.88;26.85;;;;;;;9.14;100.00;98329.84;5106658;28;20374;-84
2022/03/30 03:15:26;;;;;;;52.33;25.90;;;;;;;9.14;100.00;98329.03;5103857;28;20110;-84
2022/03/30 03:17:51;;;;;;;53.35;27.02;;;;;;;9.18;100.00;98330.22;5104318;28;20024;-82
2022/03/30 03:20:17;;;;;;;55.42;26.55;;;;;;;9.09;100.00;98313.91;5109792;28;20020;-83
2022/03/30 03:22:43;;;;;;;51.13;25.98;;;;;;;9.04;100.00;98308.50;5085697;28;20127;-84
2022/03/30 03:25:10;;;;;;;59.67;28.08;;;;;;;9.08;100.00;98322.00;5106167;28;20019;-83
2022/03/30 03:27:37;;;;;;;50.78;25.98;;;;;;;9.05;100.00;98319.78;5107464;28;20024;-83
2022/03/30 03:30:04;;;;;;;56.17;27.30;;;;;;;9.14;100.00;98329.03;5105145;28;20066;-81
2022/03/30 03:32:30;;;;;;;51.47;25.98;;;;;;;8.96;100.00;98306.88;5105305;28;20084;-84
2022/03/30 03:34:56;;;;;;;50.38;25.05;;;;;;;9.09;100.00;98321.00;5090475;28;20063;-82
2022/03/30 03:37:22;;;;;;;51.13;25.35;;;;;;;9.11;100.00;98324.19;5094807;28;20020;-83
2022/03/30 03:39:48;;;;;;;52.10;25.20;;;;;;;9.17;100.00;98328.63;5104143;28;20043;-83
2022/03/30 03:42:13;;;;;;;53.33;26.33;;;;;;;9.05;100.00;98298.84;5088550;28;20160;-83
2022/03/30 03:44:39;;;;;;;50.45;25.17;;;;;;;9.09;100.00;98310.50;5085122;28;20043;-82
2022/03/30 03:47:07;;;;;;;55.15;27.75;;;;;;;9.23;100.00;98317.31;5104277;28;20034;-82
2022/03/30 03:49:33;;;;;;;47.72;23.90;;;;;;;9.20;100.00;98316.94;5086435;28;20055;-83
2022/03/30 03:51:59;;;;;;;48.58;24.02;;;;;;;9.21;100.00;98311.50;5104929;28;20031;-84
2022/03/30 03:54:24;;;;;;;55.13;25.88;;;;;;;9.21;100.00;98310.69;5109927;28;20028;-83
2022/03/30 03:56:50;;;;;;;57.22;26.40;;;;;;;9.16;100.00;98310.50;5100823;28;20036;-83
2022/03/30 03:59:16;;;;;;;51.45;24.88;;;;;;;9.14;100.00;98308.91;5103223;28;20040;-83
2022/03/30 04:01:41;;;;;;;54.80;26.98;;;;;;;9.02;100.00;98304.47;5101662;28;20031;-83
2022/03/30 04:04:09;;;;;;;65.10;30.17;;;;;;;8.88;100.00;98299.25;5105873;28;20040;-83
2022/03/30 04:06:35;;;;;;;62.45;30.40;;;;;;;8.79;100.00;98282.13;5104266;28;20490;-83
2022/03/30 04:09:01;;;;;;;62.03;30.02;;;;;;;8.88;100.00;98296.63;5104754;28;20103;-81
2022/03/30 04:11:27;;;;;;;57.63;28.27;;;;;;;8.85;100.00;98289.97;5106673;28;20028;-82
2022/03/30 04:13:52;;;;;;;63.72;30.02;;;;;;;8.86;100.00;98302.06;5083892;28;20073;-82
2022/03/30 04:16:18;;;;;;;65.75;30.63;;;;;;;8.81;100.00;98282.72;5101318;28;20024;-84
2022/03/30 04:18:44;;;;;;;57.05;28.17;;;;;;;8.84;100.00;98282.31;5105067;28;20389;-84
2022/03/30 04:21:10;;;;;;;63.70;30.50;;;;;;;8.99;100.00;98300.44;5106302;28;20074;-83
2022/03/30 04:23:37;;;;;;;68.40;31.98;;;;;;;8.93;100.00;98296.81;5100256;28;20028;-84
2022/03/30 04:26:03;;;;;;;70.10;32.03;;;;;;;8.92;100.00;98279.50;5087204;28;20087;-83
2022/03/30 04:28:29;;;;;;;72.18;33.20;;;;;;;8.94;100.00;98281.91;5103802;28;20028;-84
2022/03/30 04:30:54;;;;;;;71.97;33.05;;;;;;;8.79;100.00;98259.41;5103148;28;20064;-82
2022/03/30 04:33:20;;;;;;;68.22;32.63;;;;;;;8.84;100.00;98264.81;5102356;28;20041;-82
2022/03/30 04:35:46;;;;;;;67.40;32.97;;;;;;;8.91;100.00;98277.09;5102516;28;20036;-82
2022/03/30 04:38:12;;;;;;;72.95;33.72;;;;;;;8.76;100.00;98265.03;5101452;28;20473;-83
2022/03/30 04:40:38;;;;;;;73.80;34.03;;;;;;;8.92;100.00;98271.66;5101874;28;20035;-82
2022/03/30 04:43:04;;;;;;;70.55;32.88;;;;;;;8.92;100.00;98257.75;5108863;28;20110;-83
2022/03/30 04:45:30;;;;;;;70.75;33.50;;;;;;;8.98;100.00;98263.00;5085035;28;20020;-82
2022/03/30 04:47:55;;;;;;;71.22;32.50;;;;;;;9.03;100.00;98266.81;5099445;28;20374;-84
2022/03/30 04:50:22;;;;;;;63.38;31.33;;;;;;;9.21;100.00;98287.94;5107637;28;20039;-83
2022/03/30 04:52:48;;;;;;;70.43;33.38;;;;;;;9.10;100.00;98268.41;5101879;28;20027;-84
2022/03/30 04:55:14;;;;;;;73.78;34.90;;;;;;;9.18;100.00;98271.84;5106423;28;20015;-83
2022/03/30 04:57:40;;;;;;;72.85;34.17;;;;;;;9.21;100.00;98282.69;5106315;28;20031;-82
2022/03/30 05:00:08;;;;;;;77.55;35.08;;;;;;;9.20;100.00;98291.56;5105536;28;20032;-81
2022/03/30 05:02:36;;;;;;;67.45;31.48;;;;;;;9.10;100.00;98275.47;5088770;28;20023;-83
2022/03/30 05:05:06;;;;;;;74.18;34.30;;;;;;;9.19;100.00;98282.09;5102899;28;20438;-82
2022/03/30 05:07:32;;;;;;;62.50;30.67;;;;;;;9.13;100.00;98265.38;5098762;28;20036;-83
2022/03/30 05:09:59;;;;;;;67.40;33.42;;;;;;;9.19;100.00;98279.47;5090558;28;20027;-83
2022/03/30 05:12:24;;;;;;;67.72;34.92;;;;;;;9.21;100.00;98282.69;5086630;28;20035;-83
2022/03/30 05:14:50;;;;;;;72.55;33.63;;;;;;;9.09;100.00;98284.34;5109550;28;20032;-83
2022/03/30 05:17:16;;;;;;;83.07;36.03;;;;;;;9.15;100.00;98275.66;5101765;28;20038;-82
2022/03/30 05:19:41;;;;;;;72.57;34.85;;;;;;;9.17;100.00;98281.50;5103410;28;20034;-81
2022/03/30 05:22:07;;;;;;;76.15;34.72;;;;;;;9.08;100.00;98264.41;5088562;28;20448;-85
2022/03/30 05:24:33;;;;;;;70.03;34.05;;;;;;;9.06;100.00;98274.28;5102411;28;20107;-83
2022/03/30 05:26:58;;;;;;;77.03;36.35;;;;;;;9.02;100.00;98265.19;5102061;28;20030;-84
2022/03/30 05:29:24;;;;;;;79.43;36.45;;;;;;;8.94;100.00;98261.78;5105529;28;20024;-85
2022/03/30 05:31:50;;;;;;;83.43;36.67;;;;;;;8.99;100.00;98264.59;5107536;28;20035;-85
2022/03/30 05:34:16;;;;;;;83.28;37.10;;;;;;;9.09;100.00;98273.88;5101410;28;20028;-83
2022/03/30 05:36:42;;;;;;;78.53;36.70;;;;;;;9.07;100.00;98270.66;5100895;28;20028;-84
2022/03/30 05:39:08;;;;;;;86.85;37.47;;;;;;;9.12;100.00;98270.84;5102367;28;20062;-83
2022/03/30 05:41:34;;;;;;;79.00;36.28;;;;;;;9.18;100.00;98272.63;5103778;28;20051;-82
2022/03/30 05:44:00;;;;;;;78.18;36.85;;;;;;;9.17;100.00;98270.22;5103035;28;20482;-84
2022/03/30 05:46:26;;;;;;;85.95;37.33;;;;;;;9.12;100.00;98276.84;5105148;28;20042;-83
2022/03/30 05:48:52;;;;;;;88.18;39.40;;;;;;;9.17;100.00;98268.41;5104457;28;20394;-83
2022/03/30 05:51:18;;;;;;;92.95;40.67;;;;;;;9.21;100.00;98272.22;5103113;28;20851;-85
2022/03/30 05:53:45;;;;;;;91.40;40.33;;;;;;;9.19;100.00;98268.22;5103599;28;20473;-84
2022/03/30 05:56:10;;;;;;;85.35;39.95;;;;;;;9.19;100.00;98281.31;5101642;28;20473;-84
2022/03/30 05:58:45;;;;;;;103.93;42.83;;;;;;;9.23;100.00;98285.91;5084091;28;20033;-85
2022/03/30 06:01:10;;;;;;;86.43;37.55;;;;;;;8.94;100.00;98256.56;5087397;28;20032;-84
2022/03/30 06:03:37;;;;;;;87.22;38.38;;;;;;;9.07;100.00;98274.06;5103944;28;20141;-85
2022/03/30 06:06:06;;;;;;;88.05;39.17;;;;;;;8.94;100.00;98247.88;5101891;28;20028;-86
2022/03/30 06:08:34;;;;;;;89.72;39.10;;;;;;;9.21;100.00;98281.91;5085565;28;20028;-84
2022/03/30 06:11:00;;;;;;;92.32;38.65;;;;;;;9.24;100.00;98273.63;5109268;28;20076;-86
2022/03/30 06:13:26;;;;;;;90.82;40.00;;;;;;;9.26;100.00;98279.47;5107825;28;20502;-84
2022/03/30 06:15:52;;;;;;;85.55;36.10;;;;;;;9.31;100.00;98269.16;5089840;28;20484;-87
2022/03/30 06:18:18;;;;;;;81.60;37.55;;;;;;;9.13;100.00;98254.91;5081823;28;20049;-82
2022/03/30 06:20:45;;;;;;;85.18;37.88;;;;;;;9.31;100.00;98274.41;5104675;28;20486;-84
2022/03/30 06:23:11;;;;;;;85.53;38.83;;;;;;;9.31;100.00;98273.63;5106609;28;20409;-82
2022/03/30 06:25:37;;;;;;;82.30;37.38;;;;;;;9.33;100.00;98279.44;5107015;28;20028;-80
2022/03/30 06:28:03;;;;;;;89.05;39.20;;;;;;;9.21;100.00;98266.19;5110558;27;20031;-80
2022/03/30 06:30:29;;;;;;;83.53;37.33;;;;;;;9.27;100.00;98271.41;5115237;28;20526;-81
2022/03/30 06:32:55;;;;;;;95.18;41.60;;;;;;;9.13;100.00;98264.59;5113407;28;20362;-79
2022/03/30 06:35:23;;;;;;;89.20;37.85;;;;;;;9.19;100.00;98268.22;5119557;28;20060;-80
2022/03/30 06:37:48;;;;;;;88.55;38.50;;;;;;;9.37;100.00;98270.16;5112866;28;20056;-80
2022/03/30 06:40:15;;;;;;;81.30;36.83;;;;;;;9.43;100.00;98264.09;5112307;28;20035;-80
2022/03/30 06:42:41;;;;;;;81.65;36.72;;;;;;;9.41;100.00;98266.13;5119522;28;20028;-80
2022/03/30 06:45:09;;;;;;;84.50;37.22;;;;;;;9.44;100.00;98273.59;5101892;28;20087;-80
2022/03/30 06:47:36;;;;;;;89.65;38.17;;;;;;;9.34;100.00;98287.13;5106534;28;20070;-80
2022/03/30 06:50:05;;;;;;;93.20;41.28;;;;;;;9.25;100.00;98288.34;5109117;28;20039;-80
2022/03/30 06:52:32;;;;;;;98.78;40.60;;;;;;;9.23;100.00;98285.13;5107840;28;20032;-80
2022/03/30 06:54:59;;;;;;;90.82;41.30;;;;;;;9.27;100.00;98281.88;5102144;28;20062;-81
2022/03/30 06:57:27;;;;;;;98.00;42.75;;;;;;;8.92;100.00;98295.22;5111136;28;20155;-80
2022/03/30 06:59:54;;;;;;;35.95;19.30;;;;;;;7.68;100.00;98295.34;5107301;28;20058;-80
2022/03/30 07:02:20;;;;;;;32.55;16.17;;;;;;;7.83;100.00;98295.97;5100742;28;20038;-81
2022/03/30 07:04:46;;;;;;;25.88;13.98;;;;;;;7.61;100.00;98273.56;5094165;28;20027;-80
2022/03/30 07:12:40;;;;;;;18.88;9.10;;;;;;;6.80;100.00;98297.38;5103366;27;20035;-80
2022/03/30 07:15:06;;;;;;;16.45;8.18;;;;;;;6.72;100.00;98281.84;5107174;28;20035;-83
2022/03/30 07:17:33;;;;;;;10.85;6.47;;;;;;;6.63;100.00;98299.44;5107454;28;20066;-80
2022/03/30 07:19:59;;;;;;;12.57;6.05;;;;;;;6.60;100.00;98310.25;5111000;28;20397;-80
2022/03/30 07:22:25;;;;;;;9.55;5.85;;;;;;;6.74;100.00;98302.53;5114752;28;20504;-78
2022/03/30 07:24:51;;;;;;;10.38;5.70;;;;;;;6.47;100.00;98289.25;5117287;28;20036;-80
2022/03/30 07:27:16;;;;;;;10.75;5.95;;;;;;;6.62;100.00;98310.84;5108794;28;20040;-79
2022/03/30 07:29:43;;;;;;;19.50;7.95;;;;;;;6.79;100.00;98308.00;5102283;28;20031;-78
2022/03/30 07:32:09;;;;;;;14.02;6.70;;;;;;;6.87;100.00;98313.06;5103407;28;20614;-78
2022/03/30 07:34:36;;;;;;;11.30;6.30;;;;;;;6.58;100.00;98301.78;5099196;28;20028;-79
2022/03/30 07:37:04;;;;;;;13.15;8.60;;;;;;;6.37;100.00;98300.81;5109930;28;20038;-79
2022/03/30 07:39:30;;;;;;;15.50;10.10;;;;;;;6.17;100.00;98305.00;5104597;28;20028;-80
2022/03/30 07:41:55;;;;;;;13.15;8.82;;;;;;;6.09;100.00;98317.16;5101173;28;20034;-78
2022/03/30 07:44:21;;;;;;;10.73;7.28;;;;;;;5.46;100.00;98316.72;5100712;28;20081;-79
2022/03/30 07:46:48;;;;;;;11.07;7.90;;;;;;;5.75;100.00;98318.53;5090067;28;20027;-79
2022/03/30 07:49:16;;;;;;;14.07;9.73;;;;;;;5.42;100.00;98305.84;5103958;28;20031;-78
2022/03/30 07:51:42;;;;;;;15.30;10.07;;;;;;;5.60;100.00;98304.69;5107942;28;20031;-79
2022/03/30 07:54:08;;;;;;;14.90;10.15;;;;;;;5.51;100.00;98310.00;5104304;28;20032;-78
2022/03/30 07:56:34;;;;;;;15.52;10.23;;;;;;;5.93;100.00;98331.16;5101015;28;20039;-78
2022/03/30 07:59:00;;;;;;;12.18;8.50;;;;;;;5.34;100.00;98329.38;5099475;28;20024;-77
2022/03/30 08:01:26;;;;;;;12.70;9.35;;;;;;;5.51;100.00;98336.03;5101404;28;20462;-79
2022/03/30 08:03:52;;;;;;;8.18;6.18;;;;;;;5.53;100.00;98336.66;5104847;28;20028;-78
2022/03/30 08:06:18;;;;;;;9.00;7.40;;;;;;;5.29;100.00;98330.69;5107303;28;20491;-79
2022/03/30 08:08:43;;;;;;;12.70;8.68;;;;;;;5.48;100.00;98338.97;5105735;28;20020;-78
2022/03/30 08:11:09;;;;;;;14.60;8.90;;;;;;;5.98;100.00;98335.81;5105900;28;20027;-78
2022/03/30 08:13:35;;;;;;;12.90;8.60;;;;;;;5.96;100.00;98346.41;5102900;28;20118;-78
2022/03/30 08:16:02;;;;;;;11.65;7.05;;;;;;;5.64;100.00;98342.41;5105225;28;20032;-79
2022/03/30 08:18:28;;;;;;;9.85;7.22;;;;;;;5.03;100.00;98338.09;5101257;28;20020;-79
2022/03/30 08:23:39;;;;;;;10.52;7.03;;;;;;;5.67;100.00;98353.28;5100641;28;20024;-78
2022/03/30 08:26:05;;;;;;;12.82;9.50;;;;;;;5.01;100.00;98343.47;5102708;28;20032;-78
2022/03/30 08:28:31;;;;;;;12.32;9.15;;;;;;;4.66;100.00;98337.91;5101637;28;20111;-79
2022/03/30 08:30:58;;;;;;;12.05;8.35;;;;;;;4.84;100.00;98353.22;5102875;28;20044;-78
2022/03/30 08:33:26;;;;;;;13.32;8.25;;;;;;;4.92;100.00;98349.75;5102926;28;20024;-79
2022/03/30 08:35:56;;;;;;;10.50;7.32;;;;;;;5.11;100.00;98348.44;5106086;28;20036;-79
2022/03/30 08:38:22;;;;;;;12.15;7.97;;;;;;;5.45;100.00;98341.16;5099256;28;20086;-78
2022/03/30 08:40:49;;;;;;;9.25;6.53;;;;;;;5.50;100.00;98341.41;5100999;28;20465;-79
2022/03/30 08:43:15;;;;;;;8.85;5.40;;;;;;;5.19;100.00;98343.16;5103594;28;20057;-79
2022/03/30 08:45:41;;;;;;;7.30;5.18;;;;;;;5.03;100.00;98341.53;5103661;28;20396;-78
2022/03/30 08:48:08;;;;;;;5.30;3.80;;;;;;;4.64;100.00;98350.28;5104413;28;20051;-78
2022/03/30 08:50:34;;;;;;;4.75;4.05;;;;;;;4.71;100.00;98353.78;5096778;28;20035;-78
2022/03/30 08:53:04;;;;;;;5.65;4.00;;;;;;;5.11;100.00;98338.84;5101263;28;20035;-78
2022/03/30 08:55:31;;;;;;;5.55;3.83;;;;;;;4.92;100.00;98360.97;5102290;28;20114;-78
2022/03/30 08:57:57;;;;;;;5.70;4.00;;;;;;;4.69;100.00;98350.56;5101306;28;20040;-78
2022/03/30 09:00:25;;;;;;;6.35;3.97;;;;;;;4.35;100.00;98373.34;5103328;28;20023;-79
2022/03/30 09:03:00;;;;;;;6.45;4.60;;;;;;;4.58;100.00;98356.97;5086830;28;20035;-80
2022/03/30 09:05:28;;;;;;;5.30;3.90;;;;;;;4.58;100.00;98349.16;5106416;28;20035;-78
2022/03/30 09:08:27;;;;;;;5.88;4.25;;;;;;;4.74;100.00;98324.84;5112705;28;20032;-79
2022/03/30 09:10:59;;;;;;;9.55;5.25;;;;;;;5.15;100.00;98342.69;5118172;28;20111;-80
2022/03/30 09:13:24;;;;;;;7.05;4.82;;;;;;;5.03;100.00;98325.91;5116635;28;20027;-79
2022/03/30 09:15:52;;;;;;;9.15;5.82;;;;;;;5.27;100.00;98337.88;5110972;28;20035;-80
2022/03/30 09:18:18;;;;;;;9.60;6.97;;;;;;;5.12;100.00;98339.66;5112374;28;20027;-79
2022/03/30 09:20:48;;;;;;;7.97;6.60;;;;;;;5.54;100.00;98327.88;5113361;28;20067;-79
2022/03/30 09:23:14;;;;;;;7.82;6.18;;;;;;;5.91;100.00;98332.34;5105305;28;20438;-79
2022/03/30 09:25:47;;;;;;;7.60;5.70;;;;;;;5.83;100.00;98315.81;5097428;28;20031;-79
2022/03/30 09:28:15;;;;;;;4.73;4.17;;;;;;;6.17;100.00;98337.06;5115901;28;20038;-79
2022/03/30 09:30:41;;;;;;;5.70;4.40;;;;;;;5.92;100.00;98324.31;5109800;28;20024;-80
2022/03/30 09:33:09;;;;;;;5.78;4.30;;;;;;;6.32;100.00;98318.81;5099663;28;20058;-78
2022/03/30 09:35:38;;;;;;;5.65;4.38;;;;;;;6.09;100.00;98322.38;5081328;28;20390;-79
2022/03/30 09:38:15;;;;;;;5.28;4.13;;;;;;;6.05;100.00;98322.91;5101759;28;20133;-79
2022/03/30 09:40:54;;;;;;;7.53;5.07;;;;;;;6.56;100.00;98325.44;5100965;28;20035;-78
2022/03/30 09:43:21;;;;;;;7.55;5.03;;;;;;;6.75;100.00;98314.59;5102004;28;20028;-78
2022/03/30 09:45:49;;;;;;;9.35;4.95;;;;;;;7.09;100.00;98313.06;5106660;28;20106;-79
2022/03/30 09:48:21;;;;;;;5.03;4.15;;;;;;;6.57;100.00;98315.84;5106732;28;20111;-79
2022/03/30 09:50:51;;;;;;;5.38;4.38;;;;;;;6.78;100.00;98320.25;5102711;28;20405;-79
2022/03/30 09:53:20;;;;;;;6.65;4.78;;;;;;;6.83;100.00;98330.09;5107251;28;20400;-80
2022/03/30 09:56:00;;;;;;;7.35;4.68;;;;;;;6.31;100.00;98313.75;5106847;28;20050;-80
2022/03/30 09:58:29;;;;;;;7.78;5.18;;;;;;;6.20;100.00;98323.69;5105780;28;20469;-80
2022/03/30 10:01:14;;;;;;;8.20;5.53;;;;;;;6.09;100.00;98319.75;5099306;28;20062;-79
2022/03/30 10:03:52;;;;;;;8.20;5.75;;;;;;;5.89;100.00;98318.66;5101056;28;20355;-80
2022/03/30 10:06:24;;;;;;;9.13;5.68;;;;;;;5.88;100.00;98309.22;5103256;28;20028;-80
2022/03/30 10:08:51;;;;;;;8.25;6.00;;;;;;;6.28;100.00;98313.13;5108395;28;20032;-79
2022/03/30 10:11:17;;;;;;;8.88;6.43;;;;;;;6.17;100.00;98331.06;5111552;28;20069;-80
2022/03/30 10:13:49;;;;;;;8.38;5.30;;;;;;;6.25;100.00;98320.50;5105922;28;20031;-79
2022/03/30 10:16:17;;;;;;;7.25;5.72;;;;;;;6.12;100.00;98318.56;5101070;28;20337;-80
2022/03/30 10:18:45;;;;;;;6.15;5.35;;;;;;;5.88;100.00;98332.69;5100693;28;20355;-80
2022/03/30 10:21:16;;;;;;;6.78;5.38;;;;;;;6.94;100.00;98316.56;5109918;28;20023;-80
2022/03/30 10:24:00;;;;;;;7.28;5.90;;;;;;;7.05;100.00;98322.25;5102007;28;20025;-80
2022/03/30 10:26:59;;;;;;;9.63;7.28;;;;;;;6.50;100.00;98325.41;5106607;28;20111;-80
2022/03/30 10:29:28;;;;;;;11.80;9.10;;;;;;;7.27;100.00;98315.19;5107138;28;20030;-79
2022/03/30 10:32:24;;;;;;;13.35;9.38;;;;;;;6.85;100.00;98317.66;5105271;28;20032;-79
2022/03/30 10:35:13;;;;;;;14.07;9.18;;;;;;;7.48;100.00;98324.75;5099372;28;20048;-80
2022/03/30 10:37:43;;;;;;;14.57;10.05;;;;;;;7.60;100.00;98313.75;5102433;28;20016;-80
2022/03/30 10:40:14;;;;;;;15.00;10.43;;;;;;;7.40;100.00;98320.50;5088978;28;20043;-79
2022/03/30 10:42:54;;;;;;;14.80;10.90;;;;;;;8.04;100.00;98315.16;5101056;28;20428;-78
2022/03/30 10:45:24;;;;;;;13.05;9.85;;;;;;;7.64;100.00;98304.53;5105716;28;20036;-78
2022/03/30 10:48:14;;;;;;;13.05;10.05;;;;;;;8.11;100.00;98305.53;5101058;28;20019;-80
2022/03/30 10:50:49;;;;;;;11.73;8.48;;;;;;;8.21;100.00;98299.94;5102778;28;20128;-80
2022/03/30 10:53:30;;;;;;;12.43;8.20;;;;;;;7.70;100.00;98299.34;5104114;28;20028;-78
2022/03/30 10:56:18;;;;;;;10.32;8.20;;;;;;;7.81;100.00;98295.38;5101319;28;20035;-79
2022/03/30 10:58:49;;;;;;;9.15;7.40;;;;;;;7.83;100.00;98288.13;5106076;28;20126;-79
2022/03/30 11:01:31;;;;;;;9.50;7.93;;;;;;;7.33;100.00;98282.28;5104733;28;20035;-77
2022/03/30 11:04:00;;;;;;;9.38;7.88;;;;;;;7.43;100.00;98278.31;5100382;28;20035;-76
2022/03/30 11:06:27;;;;;;;9.27;7.68;;;;;;;6.97;100.00;98264.00;5101012;28;20482;-78
2022/03/30 11:09:05;;;;;;;10.88;8.38;;;;;;;6.94;100.00;98277.41;5106182;28;20032;-78
2022/03/30 11:11:39;;;;;;;25.35;16.08;;;;;;;7.14;100.00;98274.13;5104300;28;20032;-78
2022/03/30 11:14:34;;;;;;;14.85;10.43;;;;;;;6.78;100.00;98281.13;5101893;28;20027;-78
2022/03/30 11:17:30;;;;;;;24.25;15.60;;;;;;;6.76;100.00;98282.28;5101402;28;20055;-78
2022/03/30 11:19:57;;;;;;;16.58;11.45;;;;;;;6.24;100.00;98285.03;5101635;28;20467;-78
2022/03/30 11:22:28;;;;;;;20.85;11.45;;;;;;;6.74;100.00;98279.06;5108983;28;20028;-81
2022/03/30 11:25:17;;;;;;;14.20;9.93;;;;;;;7.00;100.00;98274.03;5105436;28;20026;-79
2022/03/30 11:27:44;;;;;;;15.55;10.05;;;;;;;6.80;100.00;98257.44;5105154;28;20042;-80
2022/03/30 11:30:13;;;;;;;13.90;10.00;;;;;;;6.76;100.00;98271.84;5108822;28;20059;-77
2022/03/30 11:32:41;;;;;;;12.65;8.98;;;;;;;7.08;100.00;98270.47;5098005;28;20103;-79
2022/03/30 11:35:10;;;;;;;11.60;7.63;;;;;;;7.22;100.00;98262.75;5105854;28;20160;-78
2022/03/30 11:37:45;;;;;;;9.50;6.47;;;;;;;7.18;100.00;98270.16;5105707;28;20058;-79
2022/03/30 11:40:13;;;;;;;8.63;5.90;;;;;;;7.32;100.00;98265.00;5097123;28;20032;-79